Time;durP1;ratioP1;P1;durP2;ratioP2;P2;SDS_P1;SDS_P2;PMS_P1;PMS_P2;Temp;Humidity;BMP_temperature;BMP_pressure;BME280_temperature;BME280_humidity;BME280_pressure;Samples;Min_cycle;Max_cycle;Signal;HPM_P1;HPM_P2
2022/09/10 00:00:04;;;;;;;0.25;0.20;;;;;;;15.93;79.04;96662.56;4918535;29;20315;-56
2022/09/10 00:02:32;;;;;;;1.73;0.32;;;;;;;15.91;78.51;96648.56;4918416;29;20268;-55
2022/09/10 00:04:59;;;;;;;0.82;0.50;;;;;;;15.85;80.45;96649.28;4919589;29;20291;-56
2022/09/10 00:07:26;;;;;;;0.10;0.10;;;;;;;15.86;79.68;96656.28;4918412;29;20211;-56
2022/09/10 00:09:52;;;;;;;0.22;0.22;;;;;;;15.88;81.99;96656.09;4919347;29;20645;-56
2022/09/10 00:12:19;;;;;;;0.82;0.20;;;;;;;15.85;82.00;96648.44;4911174;29;20283;-55
2022/09/10 00:14:46;;;;;;;0.40;0.40;;;;;;;15.86;80.82;96650.94;4907299;29;20294;-56
2022/09/10 00:17:15;;;;;;;0.20;0.20;;;;;;;15.86;80.75;96650.94;4907521;29;20240;-56
2022/09/10 00:19:43;;;;;;;0.20;0.20;;;;;;;15.87;82.11;96659.78;4905798;29;20209;-56
2022/09/10 00:22:10;;;;;;;2.00;0.13;;;;;;;15.86;82.32;96660.78;4906027;29;20220;-54
2022/09/10 00:24:40;;;;;;;0.75;0.20;;;;;;;15.86;81.30;96656.28;4907894;29;20311;-56
2022/09/10 00:27:06;;;;;;;0.52;0.20;;;;;;;15.85;83.35;96657.28;4907779;29;20212;-57
2022/09/10 00:29:33;;;;;;;0.22;0.10;;;;;;;15.84;83.41;96650.28;4911170;29;20249;-55
2022/09/10 00:32:00;;;;;;;0.30;0.30;;;;;;;15.85;83.31;96654.59;4911682;29;20344;-55
2022/09/10 00:34:28;;;;;;;1.98;0.25;;;;;;;15.85;83.85;96651.94;4918804;29;20220;-57
2022/09/10 00:36:55;;;;;;;0.55;0.40;;;;;;;15.84;83.14;96647.59;4916909;29;20224;-57
2022/09/10 00:39:23;;;;;;;0.47;0.30;;;;;;;15.91;81.58;96653.06;4924953;29;20215;-56
2022/09/10 00:41:51;;;;;;;2.33;0.40;;;;;;;15.84;83.21;96644.94;4935373;29;20192;-55
2022/09/10 00:44:56;;;;;;;0.65;0.38;;;;;;;15.85;82.94;96651.09;4927180;29;20245;-55
2022/09/10 00:47:25;;;;;;;0.43;0.40;;;;;;;15.84;83.25;96646.75;4931479;29;20200;-54
2022/09/10 00:49:56;;;;;;;0.40;0.35;;;;;;;15.82;84.99;96628.28;4922793;29;20239;-56
2022/09/10 00:52:23;;;;;;;0.52;0.40;;;;;;;15.81;84.14;96634.63;4910173;29;20215;-56
2022/09/10 00:54:50;;;;;;;0.30;0.30;;;;;;;15.82;83.21;96636.28;4910619;29;20339;-56
2022/09/10 00:57:19;;;;;;;0.43;0.22;;;;;;;15.83;81.86;96639.78;4909245;29;20326;-56
2022/09/10 00:59:49;;;;;;;0.95;0.30;;;;;;;15.82;85.50;96633.63;4909270;29;20283;-57
2022/09/10 01:02:15;;;;;;;0.38;0.15;;;;;;;15.82;83.79;96635.47;4912111;29;20224;-55
2022/09/10 01:04:42;;;;;;;0.30;0.30;;;;;;;15.79;86.04;96628.66;4909414;29;20235;-56
2022/09/10 01:07:11;;;;;;;0.63;0.35;;;;;;;15.83;83.94;96629.13;4909040;29;20282;-55
2022/09/10 01:09:39;;;;;;;0.93;0.30;;;;;;;15.83;84.29;96627.28;4908839;29;20774;-55
2022/09/10 01:12:16;;;;;;;0.20;0.20;;;;;;;15.83;82.99;96621.13;4917855;29;20216;-56
2022/09/10 01:14:54;;;;;;;0.40;0.35;;;;;;;15.80;85.42;96613.47;4927979;29;20196;-55
2022/09/10 01:17:27;;;;;;;0.73;0.30;;;;;;;15.81;84.14;96626.63;4927297;29;20242;-56
2022/09/10 01:20:17;;;;;;;0.20;0.20;;;;;;;15.78;85.58;96620.81;4923680;29;20200;-56
2022/09/10 01:22:59;;;;;;;0.90;0.30;;;;;;;15.80;85.25;96630.28;4908861;29;20298;-56
2022/09/10 01:25:35;;;;;;;2.03;0.63;;;;;;;15.81;84.54;96628.44;4908443;29;20303;-57
2022/09/10 01:28:07;;;;;;;0.30;0.30;;;;;;;15.80;85.34;96626.81;4908168;29;20850;-53
2022/09/10 01:30:36;;;;;;;1.88;0.30;;;;;;;15.77;86.91;96625.31;4908740;29;20204;-56
2022/09/10 01:33:09;;;;;;;0.50;0.50;;;;;;;15.80;85.36;96630.28;4908012;29;20641;-55
2022/09/10 01:35:39;;;;;;;1.67;0.55;;;;;;;15.82;84.81;96622.97;4908286;29;20340;-55
2022/09/10 01:38:08;;;;;;;0.88;0.40;;;;;;;15.83;83.96;96621.97;4908371;29;20550;-56
2022/09/10 01:40:34;;;;;;;1.02;0.32;;;;;;;15.87;83.74;96619.78;4907904;29;20207;-55
2022/09/10 01:43:04;;;;;;;1.50;0.52;;;;;;;15.88;83.38;96622.25;4908127;29;20326;-56
2022/09/10 01:45:36;;;;;;;0.32;0.30;;;;;;;15.89;83.79;96620.41;4907737;29;20211;-55
2022/09/10 01:48:27;;;;;;;0.40;0.40;;;;;;;15.85;85.39;96622.59;4908558;29;20299;-56
2022/09/10 01:51:03;;;;;;;0.43;0.30;;;;;;;15.81;91.13;96621.28;4907884;29;21452;-56
2022/09/10 01:53:42;;;;;;;0.85;0.70;;;;;;;15.68;98.27;96621.03;4907660;29;20208;-56
2022/09/10 01:56:16;;;;;;;1.35;0.30;;;;;;;15.65;96.33;96616.06;4907330;29;20623;-56
2022/09/10 01:58:45;;;;;;;0.60;0.60;;;;;;;15.50;100.00;96608.97;4907306;29;20571;-55
2022/09/10 02:01:18;;;;;;;0.50;0.40;;;;;;;15.44;100.00;96607.81;4908697;29;20205;-55
2022/09/10 02:03:47;;;;;;;0.70;0.52;;;;;;;15.35;100.00;96604.34;4907919;29;20212;-55
2022/09/10 02:06:17;;;;;;;0.40;0.40;;;;;;;15.32;100.00;96601.19;4907529;29;20295;-56
2022/09/10 02:08:45;;;;;;;0.45;0.35;;;;;;;15.22;100.00;96600.56;4907278;29;20309;-56
2022/09/10 02:11:13;;;;;;;0.70;0.53;;;;;;;15.22;100.00;96597.91;4908178;29;20291;-55
2022/09/10 02:13:41;;;;;;;2.10;0.60;;;;;;;15.16;100.00;96598.59;4907513;29;20307;-55
2022/09/10 02:16:11;;;;;;;0.57;0.30;;;;;;;15.13;100.00;96598.94;4907690;29;20215;-56
2022/09/10 02:18:39;;;;;;;0.60;0.40;;;;;;;15.14;100.00;96604.09;4907960;29;20231;-56
2022/09/10 02:21:06;;;;;;;0.40;0.30;;;;;;;15.08;100.00;96606.63;4906726;29;20208;-56
2022/09/10 02:23:38;;;;;;;1.63;0.37;;;;;;;15.01;100.00;96595.00;4907899;29;20218;-56
2022/09/10 02:26:05;;;;;;;0.50;0.50;;;;;;;15.02;100.00;96594.81;4908068;29;20291;-56
2022/09/10 02:28:31;;;;;;;0.70;0.70;;;;;;;15.04;100.00;96603.47;4907367;29;20200;-56
2022/09/10 02:30:58;;;;;;;4.47;0.95;;;;;;;15.03;100.00;96599.13;4906776;29;20660;-56
2022/09/10 02:33:26;;;;;;;1.17;0.50;;;;;;;15.03;100.00;96606.28;4906922;29;20577;-57
2022/09/10 02:35:54;;;;;;;2.30;0.40;;;;;;;14.98;100.00;96606.81;4907493;29;20299;-57
2022/09/10 02:38:21;;;;;;;0.50;0.50;;;;;;;14.92;100.00;96603.00;4906533;29;20668;-56
2022/09/10 02:40:48;;;;;;;1.03;0.50;;;;;;;14.91;100.00;96601.31;4907298;29;20212;-57
2022/09/10 02:43:16;;;;;;;0.53;0.40;;;;;;;14.86;100.00;96602.84;4907058;29;20231;-56
2022/09/10 02:45:42;;;;;;;0.47;0.47;;;;;;;14.88;100.00;96596.34;4906786;29;20213;-55
2022/09/10 02:48:09;;;;;;;0.57;0.40;;;;;;;14.81;100.00;96603.34;4906383;29;20223;-56
2022/09/10 02:50:37;;;;;;;0.40;0.40;;;;;;;14.83;100.00;96596.03;4907138;29;20204;-57
2022/09/10 02:53:05;;;;;;;0.37;0.33;;;;;;;14.82;100.00;96597.03;4907194;29;20224;-57
2022/09/10 02:55:32;;;;;;;1.07;0.60;;;;;;;14.81;100.00;96608.69;4906302;29;20211;-57
2022/09/10 02:57:59;;;;;;;0.60;0.60;;;;;;;14.83;100.00;96609.34;4906951;29;20606;-55
2022/09/10 03:00:25;;;;;;;2.33;0.67;;;;;;;14.79;100.00;96608.03;4906361;29;20608;-57
2022/09/10 03:02:55;;;;;;;0.70;0.43;;;;;;;14.78;100.00;96614.34;4906754;29;20318;-56
2022/09/10 03:05:21;;;;;;;0.87;0.70;;;;;;;14.80;100.00;96606.19;4906005;29;20660;-55
2022/09/10 03:07:49;;;;;;;0.87;0.40;;;;;;;14.80;100.00;96609.69;4905756;29;20212;-56
2022/09/10 03:10:16;;;;;;;0.83;0.60;;;;;;;14.77;100.00;96610.00;4906824;29;20216;-56
2022/09/10 03:12:44;;;;;;;2.07;0.50;;;;;;;14.77;100.00;96604.69;4906090;29;20211;-57
2022/09/10 03:15:11;;;;;;;0.60;0.43;;;;;;;14.72;100.00;96606.22;4906558;29;20220;-57
2022/09/10 03:17:38;;;;;;;2.60;0.70;;;;;;;14.71;100.00;96609.88;4906229;29;20335;-56
2022/09/10 03:20:06;;;;;;;2.57;0.40;;;;;;;14.70;100.00;96603.72;4905758;29;20200;-56
2022/09/10 03:22:33;;;;;;;0.50;0.50;;;;;;;14.68;100.00;96599.56;4906364;29;20200;-56
2022/09/10 03:25:01;;;;;;;0.70;0.70;;;;;;;14.63;100.00;96601.91;4906066;29;20223;-56
2022/09/10 03:27:28;;;;;;;1.67;0.60;;;;;;;14.61;100.00;96599.41;4906484;29;20319;-56
2022/09/10 03:29:54;;;;;;;0.60;0.60;;;;;;;14.64;100.00;96615.03;4906207;29;20310;-56
2022/09/10 03:32:21;;;;;;;2.93;0.50;;;;;;;14.65;100.00;96606.06;4905790;29;20740;-57
2022/09/10 03:34:49;;;;;;;2.07;0.70;;;;;;;14.59;100.00;96611.22;4913040;29;20682;-56
2022/09/10 03:37:16;;;;;;;2.53;0.50;;;;;;;14.54;100.00;96609.06;4917221;29;20223;-57
2022/09/10 03:39:42;;;;;;;1.67;0.60;;;;;;;14.58;100.00;96607.75;4908231;29;20240;-56
2022/09/10 03:42:11;;;;;;;1.50;0.40;;;;;;;14.55;100.00;96607.25;4906337;29;20200;-57
2022/09/10 03:44:38;;;;;;;0.80;0.80;;;;;;;14.56;100.00;96607.06;4906238;29;20203;-56
2022/09/10 03:47:04;;;;;;;0.50;0.50;;;;;;;14.58;100.00;96609.56;4905388;29;20200;-56
2022/09/10 03:49:31;;;;;;;1.30;0.50;;;;;;;14.59;100.00;96611.22;4905933;29;20244;-57
2022/09/10 03:51:58;;;;;;;0.47;0.47;;;;;;;14.58;100.00;96610.41;4905731;29;20239;-57
2022/09/10 03:54:24;;;;;;;0.73;0.60;;;;;;;14.58;100.00;96609.56;4906204;29;20607;-56
2022/09/10 03:56:51;;;;;;;1.47;0.40;;;;;;;14.54;100.00;96600.25;4905632;29;20216;-56
2022/09/10 03:59:19;;;;;;;0.37;0.37;;;;;;;14.57;100.00;96594.59;4906221;29;20223;-56
2022/09/10 04:01:46;;;;;;;1.73;0.70;;;;;;;14.53;100.00;96607.41;4905480;29;20310;-56
2022/09/10 04:04:13;;;;;;;0.67;0.40;;;;;;;14.53;100.00;96602.06;4905759;29;20286;-56
2022/09/10 04:06:40;;;;;;;1.27;0.50;;;;;;;14.51;100.00;96606.75;4905591;29;20231;-56
2022/09/10 04:09:07;;;;;;;0.87;0.57;;;;;;;14.45;100.00;96589.59;4906007;29;20334;-56
2022/09/10 04:11:33;;;;;;;0.50;0.50;;;;;;;14.42;100.00;96605.91;4905478;29;20661;-56
2022/09/10 04:14:00;;;;;;;0.50;0.50;;;;;;;14.45;100.00;96607.44;4905784;29;20256;-56
2022/09/10 04:16:29;;;;;;;1.10;0.87;;;;;;;14.43;100.00;96606.75;4906436;29;20335;-57
2022/09/10 04:18:56;;;;;;;2.50;0.70;;;;;;;14.37;100.00;96607.44;4907164;29;20275;-57
2022/09/10 04:21:23;;;;;;;2.27;0.70;;;;;;;14.31;100.00;96610.72;4909778;29;20315;-57
2022/09/10 04:23:53;;;;;;;1.83;0.53;;;;;;;14.25;100.00;96604.22;4909810;29;20208;-57
2022/09/10 04:26:21;;;;;;;0.70;0.45;;;;;;;14.22;100.00;96609.06;4909423;29;20200;-57
2022/09/10 04:28:47;;;;;;;1.30;0.70;;;;;;;14.23;100.00;96608.91;4909651;29;20212;-56
2022/09/10 04:31:14;;;;;;;4.33;0.80;;;;;;;14.18;100.00;96613.88;4909192;29;20200;-57
2022/09/10 04:33:43;;;;;;;0.77;0.60;;;;;;;14.18;100.00;96613.03;4909014;29;20214;-58
2022/09/10 04:36:10;;;;;;;1.10;0.60;;;;;;;14.16;100.00;96604.41;4909514;29;20208;-56
2022/09/10 04:38:39;;;;;;;0.70;0.60;;;;;;;14.15;100.00;96608.06;4909846;29;20232;-57
2022/09/10 04:41:06;;;;;;;1.37;1.00;;;;;;;14.17;100.00;96606.06;4909309;29;20208;-56
2022/09/10 04:43:32;;;;;;;1.60;0.60;;;;;;;14.20;100.00;96601.25;4908477;29;20242;-56
2022/09/10 04:45:59;;;;;;;1.37;0.50;;;;;;;14.21;100.00;96612.69;4908643;29;20299;-56
2022/09/10 04:48:26;;;;;;;1.33;0.90;;;;;;;14.21;100.00;96602.06;4909313;29;20223;-55
2022/09/10 04:50:54;;;;;;;1.47;0.73;;;;;;;14.23;100.00;96610.72;4908140;29;20713;-57
2022/09/10 04:53:20;;;;;;;1.40;0.70;;;;;;;14.21;100.00;96615.34;4908565;29;20263;-56
2022/09/10 04:55:47;;;;;;;0.50;0.50;;;;;;;14.18;100.00;96611.22;4908939;29;20208;-57
2022/09/10 04:58:14;;;;;;;1.10;0.77;;;;;;;14.21;100.00;96612.69;4909249;29;20315;-57
2022/09/10 05:00:41;;;;;;;2.33;0.63;;;;;;;14.19;100.00;96620.88;4908338;29;20638;-57
2022/09/10 05:03:08;;;;;;;1.10;0.70;;;;;;;14.19;100.00;96614.72;4908327;29;20696;-57
2022/09/10 05:05:35;;;;;;;1.83;0.77;;;;;;;14.20;100.00;96611.06;4907870;29;20290;-56
2022/09/10 05:08:06;;;;;;;0.50;0.47;;;;;;;14.24;100.00;96609.72;4908890;29;20308;-55
2022/09/10 05:10:34;;;;;;;3.73;0.50;;;;;;;14.27;100.00;96606.75;4908419;29;20203;-56
2022/09/10 05:13:01;;;;;;;1.90;0.60;;;;;;;14.30;100.00;96617.88;4908471;29;20207;-55
2022/09/10 05:15:28;;;;;;;1.03;0.60;;;;;;;14.31;100.00;96618.72;4908926;29;20725;-57
2022/09/10 05:17:54;;;;;;;0.83;0.57;;;;;;;14.32;100.00;96623.00;4908943;29;20240;-57
2022/09/10 05:20:21;;;;;;;2.00;0.57;;;;;;;14.33;100.00;96632.66;4908529;29;20208;-56
2022/09/10 05:22:48;;;;;;;1.17;1.03;;;;;;;14.34;100.00;96623.72;4908538;29;20634;-56
2022/09/10 05:25:16;;;;;;;1.77;0.90;;;;;;;14.35;100.00;96623.53;4909281;29;20239;-56
2022/09/10 05:27:42;;;;;;;0.90;0.67;;;;;;;14.38;100.00;96620.53;4908918;29;20546;-56
2022/09/10 05:30:10;;;;;;;0.70;0.70;;;;;;;14.42;100.00;96621.03;4908267;29;20208;-56
2022/09/10 05:32:37;;;;;;;1.77;0.70;;;;;;;14.47;100.00;96626.69;4908996;29;20232;-57
2022/09/10 05:35:05;;;;;;;0.50;0.50;;;;;;;14.51;100.00;96620.06;4908736;29;20207;-56
2022/09/10 05:37:31;;;;;;;1.37;0.60;;;;;;;14.54;100.00;96614.38;4908220;29;20306;-56
2022/09/10 05:39:59;;;;;;;2.73;0.90;;;;;;;14.56;100.00;96612.38;4907909;29;20675;-56
2022/09/10 05:42:28;;;;;;;0.87;0.67;;;;;;;14.56;100.00;96619.56;4907731;29;20253;-56
2022/09/10 05:44:55;;;;;;;1.07;0.87;;;;;;;14.54;100.00;96627.69;4908970;29;20220;-57
2022/09/10 05:47:21;;;;;;;1.90;0.70;;;;;;;14.54;100.00;96626.84;4907893;29;21391;-57
2022/09/10 05:49:48;;;;;;;2.87;0.60;;;;;;;14.61;100.00;96630.50;4908066;29;20209;-58
2022/09/10 05:52:15;;;;;;;1.77;0.80;;;;;;;14.62;100.00;96638.34;4907972;29;20588;-56
2022/09/10 05:54:43;;;;;;;1.67;0.83;;;;;;;14.66;100.00;96634.34;4908097;29;20206;-56
2022/09/10 05:57:10;;;;;;;1.80;1.03;;;;;;;14.68;100.00;96636.81;4908200;29;20218;-56
2022/09/10 05:59:38;;;;;;;1.33;0.80;;;;;;;14.68;100.00;96642.16;4907806;29;20769;-55
2022/09/10 06:02:05;;;;;;;1.00;0.63;;;;;;;14.70;100.00;96640.97;4907787;29;20216;-56
2022/09/10 06:04:32;;;;;;;1.33;0.63;;;;;;;14.73;100.00;96640.66;4907615;29;20215;-56
2022/09/10 06:07:00;;;;;;;0.93;0.90;;;;;;;14.83;100.00;96640.47;4908373;29;20218;-57
2022/09/10 06:09:27;;;;;;;1.00;0.73;;;;;;;14.84;100.00;96634.97;4907597;29;20212;-57
2022/09/10 06:11:53;;;;;;;1.37;0.80;;;;;;;14.90;100.00;96636.97;4907518;29;20207;-56
2022/09/10 06:14:20;;;;;;;1.43;0.77;;;;;;;14.97;100.00;96638.94;4907637;29;20566;-56
2022/09/10 06:16:50;;;;;;;2.40;0.90;;;;;;;15.00;100.00;96635.94;4907498;29;20637;-56
2022/09/10 06:19:18;;;;;;;1.47;0.67;;;;;;;15.05;100.00;96644.25;4907844;29;20236;-57
2022/09/10 06:21:45;;;;;;;4.13;0.97;;;;;;;15.07;100.00;96644.91;4907269;29;20226;-56
2022/09/10 06:24:12;;;;;;;1.30;0.60;;;;;;;15.09;100.00;96651.72;4907482;29;20211;-55
2022/09/10 06:26:39;;;;;;;0.87;0.80;;;;;;;15.11;100.00;96649.72;4907008;29;20295;-56
2022/09/10 06:29:06;;;;;;;1.00;0.50;;;;;;;15.16;100.00;96655.34;4907112;29;20196;-57
2022/09/10 06:31:33;;;;;;;2.85;0.80;;;;;;;15.13;100.00;96657.53;4906712;29;20219;-56
2022/09/10 06:34:02;;;;;;;3.45;1.10;;;;;;;15.12;100.00;96659.38;4907420;29;20213;-57
2022/09/10 06:36:30;;;;;;;0.80;0.70;;;;;;;15.17;100.00;96664.19;4907103;29;20219;-55
2022/09/10 06:38:58;;;;;;;2.97;0.83;;;;;;;15.26;100.00;96664.00;4907314;29;20675;-56
2022/09/10 06:41:25;;;;;;;3.70;1.20;;;;;;;15.21;100.00;96669.00;4907414;29;20216;-57
2022/09/10 06:43:52;;;;;;;1.30;1.07;;;;;;;15.23;100.00;96658.19;4907033;29;20240;-55
2022/09/10 06:46:20;;;;;;;1.10;0.60;;;;;;;15.27;100.00;96662.16;4907721;29;20210;-57
2022/09/10 06:48:47;;;;;;;1.43;0.90;;;;;;;15.32;100.00;96655.31;4907482;29;20205;-56
2022/09/10 06:51:16;;;;;;;1.03;0.50;;;;;;;15.37;100.00;96668.13;4906513;29;20208;-56
2022/09/10 06:53:45;;;;;;;1.60;1.00;;;;;;;15.39;100.00;96664.28;4906704;29;20204;-56
2022/09/10 06:56:12;;;;;;;1.13;0.60;;;;;;;15.43;100.00;96670.09;4906797;29;20706;-56
2022/09/10 06:58:40;;;;;;;0.80;0.57;;;;;;;15.44;100.00;96685.91;4906605;29;20221;-56
2022/09/10 07:01:08;;;;;;;1.30;1.03;;;;;;;15.44;100.00;96680.56;4906786;29;20204;-56
2022/09/10 07:03:35;;;;;;;1.90;0.77;;;;;;;15.52;100.00;96678.94;4906498;29;20203;-57
2022/09/10 07:06:06;;;;;;;3.40;0.80;;;;;;;15.58;100.00;96678.25;4907114;29;20215;-56
2022/09/10 07:08:35;;;;;;;2.72;0.80;;;;;;;15.60;100.00;96682.38;4908034;29;20290;-56
2022/09/10 07:11:04;;;;;;;1.50;0.83;;;;;;;15.64;100.00;96678.38;4907313;29;20299;-57
2022/09/10 07:13:31;;;;;;;2.25;0.80;;;;;;;15.70;100.00;96687.50;4907258;29;20230;-56
2022/09/10 07:15:58;;;;;;;1.08;0.77;;;;;;;15.77;100.00;96689.31;4905808;29;20243;-55
2022/09/10 07:18:25;;;;;;;2.70;0.90;;;;;;;15.84;100.00;96695.59;4907867;29;20343;-55
2022/09/10 07:20:52;;;;;;;1.27;0.65;;;;;;;15.97;100.00;96692.38;4907041;29;20541;-56
2022/09/10 07:23:21;;;;;;;1.30;0.70;;;;;;;16.10;100.00;96694.47;4907402;29;20200;-56
2022/09/10 07:25:49;;;;;;;2.63;0.77;;;;;;;16.21;100.00;96700.25;4906925;29;20205;-56
2022/09/10 07:28:17;;;;;;;2.53;0.95;;;;;;;16.29;100.00;96702.88;4906697;29;21627;-56
2022/09/10 07:30:46;;;;;;;1.70;0.93;;;;;;;16.38;100.00;96707.13;4907345;29;21002;-57
2022/09/10 07:33:12;;;;;;;2.08;0.80;;;;;;;16.48;100.00;96711.38;4907208;29;20775;-56
2022/09/10 07:35:39;;;;;;;1.08;0.80;;;;;;;16.51;100.00;96716.41;4906612;29;20239;-57
2022/09/10 07:38:07;;;;;;;1.55;0.80;;;;;;;16.57;100.00;96703.19;4907552;29;20363;-57
2022/09/10 07:40:34;;;;;;;2.47;0.88;;;;;;;16.57;100.00;96713.88;4907252;29;20201;-56
2022/09/10 07:43:02;;;;;;;1.63;1.00;;;;;;;16.54;100.00;96714.19;4906440;29;20244;-55
2022/09/10 07:45:31;;;;;;;2.65;0.85;;;;;;;16.60;98.96;96713.50;4907351;29;20740;-60
2022/09/10 07:47:58;;;;;;;0.77;0.70;;;;;;;16.74;98.38;96715.41;4907004;29;20301;-55
2022/09/10 07:50:24;;;;;;;1.70;1.15;;;;;;;16.85;97.92;96719.50;4908291;29;20594;-54
2022/09/10 07:52:51;;;;;;;2.75;0.90;;;;;;;16.91;99.57;96716.09;4905888;29;20255;-53
2022/09/10 07:55:18;;;;;;;4.30;1.20;;;;;;;17.07;99.53;96725.81;4906526;29;20213;-57
2022/09/10 07:57:44;;;;;;;3.00;2.08;;;;;;;17.20;95.30;96718.81;4906387;29;20208;-57
2022/09/10 08:00:15;;;;;;;3.10;1.40;;;;;;;17.29;97.68;96719.56;4906715;29;20553;-56
2022/09/10 08:02:42;;;;;;;1.15;0.85;;;;;;;17.48;93.35;96721.69;4907077;29;20203;-56
2022/09/10 08:05:10;;;;;;;3.60;0.98;;;;;;;17.54;89.42;96725.47;4906634;29;20552;-56
2022/09/10 08:07:37;;;;;;;0.98;0.90;;;;;;;17.60;91.79;96735.47;4907353;29;20522;-56
2022/09/10 08:10:06;;;;;;;2.20;0.80;;;;;;;17.71;89.89;96730.47;4908326;29;20513;-56
2022/09/10 08:12:33;;;;;;;0.88;0.63;;;;;;;17.78;90.69;96730.59;4920283;29;20215;-56
2022/09/10 08:15:00;;;;;;;1.05;0.70;;;;;;;17.78;90.09;96734.06;4923696;29;20223;-56
2022/09/10 08:17:28;;;;;;;1.33;0.60;;;;;;;17.73;87.70;96733.81;4917807;29;20538;-56
2022/09/10 08:19:55;;;;;;;3.42;1.00;;;;;;;17.70;86.38;96736.88;4923357;29;20256;-54
2022/09/10 08:22:22;;;;;;;3.00;0.80;;;;;;;17.63;86.49;96733.28;4920325;29;20210;-55
2022/09/10 08:24:49;;;;;;;2.25;0.90;;;;;;;17.65;88.25;96733.06;4913850;29;20262;-55
2022/09/10 08:27:16;;;;;;;2.22;1.10;;;;;;;17.56;89.06;96732.34;4909651;29;20312;-57
2022/09/10 08:29:43;;;;;;;2.75;0.95;;;;;;;17.54;88.79;96739.66;4906328;29;20296;-57
2022/09/10 08:32:12;;;;;;;1.48;0.98;;;;;;;17.54;90.46;96739.66;4905877;29;20303;-57
2022/09/10 08:34:40;;;;;;;2.47;1.10;;;;;;;17.47;89.02;96744.09;4907161;29;20213;-58
2022/09/10 08:37:07;;;;;;;2.95;0.90;;;;;;;17.53;87.94;96754.09;4906546;29;20223;-59
2022/09/10 08:39:34;;;;;;;1.55;0.80;;;;;;;17.49;89.18;96746.59;4906314;29;20319;-59
2022/09/10 08:42:04;;;;;;;1.50;0.68;;;;;;;17.56;87.43;96753.75;4906513;29;20295;-58
2022/09/10 08:44:35;;;;;;;2.05;0.88;;;;;;;17.58;87.55;96754.38;4906082;29;20607;-61
2022/09/10 08:47:07;;;;;;;2.17;0.80;;;;;;;17.57;86.98;96760.72;4906124;29;20207;-57
2022/09/10 08:49:38;;;;;;;3.70;1.10;;;;;;;17.72;88.16;96758.91;4906041;29;20292;-57
2022/09/10 08:52:12;;;;;;;0.90;0.70;;;;;;;17.82;88.48;96753.25;4905278;29;20777;-58
2022/09/10 08:54:42;;;;;;;1.13;0.90;;;;;;;17.88;89.60;96765.91;4906158;29;20212;-58
2022/09/10 08:57:18;;;;;;;1.85;0.90;;;;;;;17.98;90.29;96762.94;4905714;29;20213;-57
2022/09/10 08:59:45;;;;;;;2.30;0.80;;;;;;;18.06;87.68;96760.19;4905682;29;20215;-59
2022/09/10 09:02:17;;;;;;;1.30;0.80;;;;;;;18.18;85.32;96774.72;4905562;29;20305;-56
2022/09/10 09:04:47;;;;;;;1.17;0.80;;;;;;;18.42;85.15;96768.25;4905831;29;20212;-58
2022/09/10 09:07:18;;;;;;;1.90;0.65;;;;;;;18.61;84.83;96778.34;4909318;29;20303;-57
2022/09/10 09:09:48;;;;;;;1.23;0.85;;;;;;;18.68;82.19;96769.38;4909244;29;20213;-58
2022/09/10 09:12:21;;;;;;;1.67;0.60;;;;;;;18.82;80.85;96773.00;4909081;29;20214;-56
2022/09/10 09:15:00;;;;;;;2.17;0.50;;;;;;;18.93;78.55;96769.00;4908743;29;20672;-58
2022/09/10 09:17:33;;;;;;;0.85;0.68;;;;;;;18.96;74.39;96773.97;4909019;29;20303;-57
2022/09/10 09:20:08;;;;;;;1.08;0.68;;;;;;;19.06;76.19;96763.78;4909185;29;20245;-58
2022/09/10 09:22:41;;;;;;;1.63;1.05;;;;;;;19.32;73.56;96761.28;4909295;29;20215;-57
2022/09/10 09:25:13;;;;;;;0.65;0.40;;;;;;;19.65;74.54;96765.09;4908162;29;20291;-57
2022/09/10 09:27:41;;;;;;;2.80;1.50;;;;;;;20.08;72.21;96754.19;4908768;29;20259;-58
2022/09/10 09:30:17;;;;;;;2.33;1.60;;;;;;;20.51;71.68;96760.16;4908441;29;20208;-59
2022/09/10 09:32:45;;;;;;;1.58;0.70;;;;;;;20.84;64.57;96758.38;4908954;29;20546;-57
2022/09/10 09:35:22;;;;;;;1.10;0.70;;;;;;;20.89;63.47;96753.22;4908325;29;20215;-57
2022/09/10 09:38:04;;;;;;;1.48;0.98;;;;;;;20.92;64.51;96760.88;4908817;29;20211;-58
2022/09/10 09:40:36;;;;;;;1.70;0.80;;;;;;;20.83;61.05;96754.03;4908087;29;20303;-57
2022/09/10 09:43:09;;;;;;;2.58;0.75;;;;;;;20.62;64.39;96752.31;4907755;29;20244;-58
2022/09/10 09:45:37;;;;;;;1.25;0.50;;;;;;;20.62;62.61;96757.69;4907826;29;20617;-58
2022/09/10 09:48:05;;;;;;;1.75;0.60;;;;;;;20.31;67.59;96755.53;4907578;29;20309;-57
2022/09/10 09:50:34;;;;;;;0.73;0.70;;;;;;;20.22;67.75;96758.56;4908974;29;20211;-58
2022/09/10 09:53:01;;;;;;;1.38;0.57;;;;;;;20.13;67.89;96754.38;4908084;29;20204;-58
2022/09/10 09:55:32;;;;;;;1.48;0.60;;;;;;;20.05;68.76;96755.38;4908647;29;20235;-58
2022/09/10 09:58:33;;;;;;;2.70;0.60;;;;;;;20.14;69.15;96759.56;4907968;29;20200;-59
2022/09/10 10:01:13;;;;;;;1.20;0.50;;;;;;;19.87;67.87;96744.38;4908217;29;20215;-57
2022/09/10 10:03:51;;;;;;;1.92;1.02;;;;;;;19.91;69.34;96752.84;4907421;29;20203;-58
2022/09/10 10:06:19;;;;;;;1.67;0.90;;;;;;;19.66;68.59;96750.63;4908209;29;20235;-58
2022/09/10 10:08:54;;;;;;;1.42;1.33;;;;;;;19.46;68.91;96751.53;4907422;29;20302;-58
2022/09/10 10:11:21;;;;;;;1.17;0.90;;;;;;;19.50;69.49;96748.25;4908169;29;20208;-59
2022/09/10 10:13:50;;;;;;;2.33;1.40;;;;;;;19.48;70.79;96747.66;4907575;29;20213;-56
2022/09/10 10:16:18;;;;;;;3.13;0.88;;;;;;;19.65;70.60;96745.47;4907119;29;20227;-57
2022/09/10 10:18:45;;;;;;;1.60;1.23;;;;;;;19.79;69.48;96747.22;4906908;29;20287;-57
2022/09/10 10:21:18;;;;;;;1.88;0.98;;;;;;;19.85;71.34;96739.19;4907602;29;20283;-58
2022/09/10 10:23:46;;;;;;;2.42;0.85;;;;;;;19.79;71.07;96737.31;4907751;29;20601;-56
2022/09/10 10:26:31;;;;;;;0.70;0.70;;;;;;;19.62;70.47;96727.94;4907568;29;20308;-58
2022/09/10 10:29:02;;;;;;;3.42;1.60;;;;;;;19.67;70.66;96725.47;4923861;29;20200;-60
2022/09/10 10:31:35;;;;;;;1.27;0.98;;;;;;;19.72;72.73;96727.56;4928981;29;20233;-56
2022/09/10 10:34:15;;;;;;;3.88;2.10;;;;;;;19.68;70.37;96727.13;4932799;29;20215;-58
2022/09/10 10:36:47;;;;;;;4.22;1.60;;;;;;;19.50;69.83;96723.28;4909522;29;20235;-56
2022/09/10 10:39:23;;;;;;;3.65;1.10;;;;;;;19.42;68.94;96726.13;4907583;29;20666;-59
2022/09/10 10:41:57;;;;;;;1.98;1.20;;;;;;;19.30;69.46;96729.31;4907147;29;20204;-57
2022/09/10 10:44:35;;;;;;;5.00;2.80;;;;;;;19.42;70.49;96724.25;4905871;29;20239;-57
2022/09/10 10:47:27;;;;;;;3.90;2.20;;;;;;;19.46;70.91;96730.91;4906570;29;20219;-57
2022/09/10 10:50:02;;;;;;;4.10;1.85;;;;;;;19.62;70.06;96729.78;4908311;29;20214;-61
2022/09/10 10:52:33;;;;;;;0.88;0.77;;;;;;;19.66;69.99;96726.47;4892035;29;20235;-55
2022/09/10 10:55:13;;;;;;;2.50;1.20;;;;;;;19.57;68.37;96741.09;4907885;29;20218;-56
2022/09/10 10:58:02;;;;;;;1.40;0.95;;;;;;;19.50;70.49;96734.00;4906891;29;20276;-57
2022/09/10 11:00:41;;;;;;;1.58;0.70;;;;;;;19.63;71.21;96721.50;4907833;29;20226;-56
2022/09/10 11:03:15;;;;;;;1.80;0.65;;;;;;;19.58;70.54;96733.88;4915867;29;20230;-57
2022/09/10 11:05:43;;;;;;;3.28;1.00;;;;;;;19.36;72.12;96735.75;4917865;29;20298;-56
2022/09/10 11:08:14;;;;;;;1.23;0.90;;;;;;;19.14;76.11;96736.81;4906622;29;20244;-57
2022/09/10 11:10:44;;;;;;;1.90;1.00;;;;;;;18.85;78.59;96746.66;4907561;29;20850;-56
2022/09/10 11:13:16;;;;;;;2.00;1.02;;;;;;;18.44;83.58;96742.91;4907216;29;20672;-56
2022/09/10 11:15:47;;;;;;;3.20;1.02;;;;;;;18.40;85.48;96742.47;4906355;29;20204;-56
2022/09/10 11:18:16;;;;;;;2.95;1.27;;;;;;;18.24;87.59;96736.53;4906435;29;20295;-56
2022/09/10 11:20:45;;;;;;;2.97;1.30;;;;;;;18.07;87.79;96738.56;4911386;29;20239;-55
2022/09/10 11:23:21;;;;;;;2.78;1.27;;;;;;;17.85;93.78;96729.63;4913498;29;20637;-55
2022/09/10 11:25:54;;;;;;;0.90;0.75;;;;;;;17.62;92.15;96730.75;4911043;29;20722;-56
2022/09/10 11:28:25;;;;;;;2.88;1.08;;;;;;;17.47;91.75;96728.06;4906316;29;20216;-56
2022/09/10 11:30:58;;;;;;;1.35;0.70;;;;;;;17.39;99.52;96725.50;4906420;29;20291;-55
2022/09/10 11:33:29;;;;;;;3.10;1.00;;;;;;;17.45;100.00;96715.88;4906622;29;20211;-55
2022/09/10 11:36:02;;;;;;;3.00;1.30;;;;;;;17.58;100.00;96716.94;4906100;29;20295;-57
2022/09/10 11:38:32;;;;;;;3.60;0.90;;;;;;;17.59;100.00;96715.94;4906543;29;20204;-56